Time;durP1;ratioP1;P1;durP2;ratioP2;P2;SDS_P1;SDS_P2;PMS_P1;PMS_P2;Temp;Humidity;BMP_temperature;BMP_pressure;BME280_temperature;BME280_humidity;BME280_pressure;Samples;Min_cycle;Max_cycle;Signal;HPM_P1;HPM_P2
2022/01/12 00:01:50;;;;;;;16.92;4.28;;;6.40;99.90;;;;;;6225930;22;20081;-94
2022/01/12 00:04:20;;;;;;;35.15;4.30;;;6.40;99.90;;;;;;6226674;22;20015;-93
2022/01/12 00:06:48;;;;;;;25.85;3.97;;;6.40;99.90;;;;;;6225921;22;20043;-94
2022/01/12 00:09:17;;;;;;;21.58;3.97;;;6.40;99.90;;;;;;6226296;22;20015;-94
2022/01/12 00:11:44;;;;;;;16.98;2.92;;;6.40;99.90;;;;;;6225928;22;20022;-93
2022/01/12 00:14:17;;;;;;;16.55;2.63;;;6.40;99.90;;;;;;6225961;22;20389;-94
2022/01/12 00:16:47;;;;;;;27.17;3.75;;;6.40;99.90;;;;;;6226500;22;20432;-94
2022/01/12 00:19:22;;;;;;;28.77;4.10;;;6.40;99.90;;;;;;6226750;22;20514;-94
2022/01/12 00:21:52;;;;;;;;;;;6.40;99.90;;;;;;6227629;22;20043;-94
2022/01/12 00:24:19;;;;;;;21.42;2.40;;;6.40;99.90;;;;;;6250993;22;19943;-95
2022/01/12 00:35:06;;;;;;;11.60;1.98;;;6.20;99.90;;;;;;6250933;22;20070;-94
2022/01/12 00:37:34;;;;;;;11.50;3.30;;;6.20;99.90;;;;;;6225440;22;20402;-95
2022/01/12 00:40:04;;;;;;;16.02;3.40;;;6.10;99.90;;;;;;6225652;22;20047;-94
2022/01/12 00:42:35;;;;;;;11.10;3.15;;;6.10;99.90;;;;;;6227515;22;20383;-93
2022/01/12 00:45:06;;;;;;;12.93;2.50;;;6.00;99.90;;;;;;6252853;22;20066;-94
2022/01/12 00:47:36;;;;;;;17.95;2.85;;;6.00;99.90;;;;;;6225935;22;20026;-94
2022/01/12 00:50:13;;;;;;;17.67;3.50;;;6.00;99.90;;;;;;6227734;22;20023;-94
2022/01/12 00:52:41;;;;;;;13.82;2.45;;;5.90;99.90;;;;;;6250720;22;20110;-94
2022/01/12 00:55:09;;;;;;;24.83;2.80;;;5.90;99.90;;;;;;6225536;22;20508;-94
2022/01/12 00:57:38;;;;;;;27.65;3.50;;;5.90;99.90;;;;;;6225919;22;20383;-94
2022/01/12 01:00:08;;;;;;;24.35;4.18;;;6.00;99.90;;;;;;6251062;22;20046;-96
2022/01/12 01:02:38;;;;;;;25.30;3.65;;;6.00;99.90;;;;;;6226162;22;20012;-93
2022/01/12 01:05:11;;;;;;;10.60;2.58;;;6.10;99.90;;;;;;6250708;22;20011;-93
2022/01/12 01:07:38;;;;;;;12.82;2.38;;;6.00;99.90;;;;;;6225487;22;20102;-93
2022/01/12 01:10:09;;;;;;;19.10;3.35;;;6.00;99.90;;;;;;6226264;22;20038;-93
2022/01/12 01:12:37;;;;;;;14.30;2.67;;;5.90;99.90;;;;;;6225991;22;20473;-94
2022/01/12 01:15:12;;;;;;;13.07;2.47;;;5.80;99.90;;;;;;6226695;22;20050;-94
2022/01/12 01:25:49;;;;;;;20.38;3.05;;;5.90;99.90;;;;;;6251591;22;20079;-93
2022/01/12 01:28:21;;;;;;;17.08;2.67;;;5.90;99.90;;;;;;6250687;22;20016;-93
2022/01/12 01:30:48;;;;;;;28.40;3.70;;;5.90;99.90;;;;;;6251585;22;20085;-94
2022/01/12 01:33:26;;;;;;;20.52;3.38;;;5.90;99.90;;;;;;6228619;22;20110;-93
2022/01/12 01:35:57;;;;;;;16.23;2.95;;;5.90;99.90;;;;;;6251550;22;20098;-94
2022/01/12 01:38:26;;;;;;;25.35;2.67;;;5.90;99.90;;;;;;6225656;22;20020;-94
2022/01/12 01:40:54;;;;;;;18.67;3.08;;;5.80;99.90;;;;;;6250773;22;20020;-94
2022/01/12 01:54:33;;;;;;;40.65;3.78;;;5.80;99.90;;;;;;6252245;22;20016;-95
2022/01/12 01:57:03;;;;;;;7.88;2.03;;;5.80;99.90;;;;;;6228492;22;20019;-94
2022/01/12 01:59:32;;;;;;;7.15;2.05;;;5.50;99.90;;;;;;6227813;22;20466;-94
2022/01/12 02:01:59;;;;;;;9.50;2.03;;;5.40;99.90;;;;;;6227073;22;20046;-94
2022/01/12 02:04:27;;;;;;;9.63;2.42;;;5.40;99.90;;;;;;6227207;22;20025;-93
2022/01/12 02:06:58;;;;;;;8.00;1.83;;;5.40;99.90;;;;;;6227564;22;20095;-94
2022/01/12 02:09:26;;;;;;;10.25;1.85;;;5.40;99.90;;;;;;6227359;22;20019;-93
2022/01/12 02:12:04;;;;;;;8.38;1.92;;;5.40;99.90;;;;;;6253038;22;20015;-94
2022/01/12 02:14:32;;;;;;;8.95;2.08;;;5.40;99.90;;;;;;6227802;22;20019;-94
2022/01/12 02:17:08;;;;;;;13.95;2.72;;;5.40;99.90;;;;;;6227116;22;20428;-94
2022/01/12 02:36:20;;;;;;;6.75;1.30;;;5.40;99.90;;;;;;6279929;22;20008;-94
2022/01/12 02:41:33;;;;;;;6.60;1.13;;;5.30;99.90;;;;;;6279005;22;20019;-93
2022/01/12 02:55:08;;;;;;;9.10;2.10;;;5.30;99.90;;;;;;6260231;22;20016;-93
2022/01/12 02:57:35;;;;;;;5.18;1.50;;;5.30;99.90;;;;;;6251802;22;20015;-94
2022/01/12 03:00:08;;;;;;;5.43;1.35;;;5.20;99.90;;;;;;6226689;22;20015;-93
2022/01/12 03:02:39;;;;;;;6.45;1.40;;;5.20;99.90;;;;;;6227034;22;20065;-94
2022/01/12 03:07:58;;;;;;;4.80;1.23;;;5.20;99.90;;;;;;6252527;22;20019;-93
2022/01/12 03:10:25;;;;;;;8.27;1.67;;;5.20;99.90;;;;;;6251629;22;20023;-94
2022/01/12 03:12:54;;;;;;;3.05;1.23;;;5.20;99.90;;;;;;6235316;22;20048;-94
2022/01/12 03:15:23;;;;;;;6.57;1.38;;;5.20;99.90;;;;;;6227234;22;20374;-93
2022/01/12 03:17:50;;;;;;;5.40;1.65;;;5.10;99.90;;;;;;6226862;22;20023;-94
2022/01/12 03:20:21;;;;;;;5.57;1.10;;;5.20;99.90;;;;;;6251761;22;20023;-94
2022/01/12 03:22:51;;;;;;;4.28;0.85;;;5.10;99.90;;;;;;6253046;22;20011;-93
2022/01/12 03:25:18;;;;;;;5.85;1.25;;;5.10;99.90;;;;;;6251820;22;20020;-94
2022/01/12 03:27:50;;;;;;;2.30;0.73;;;5.10;99.90;;;;;;6226864;22;20099;-93
2022/01/12 03:30:17;;;;;;;4.35;1.17;;;5.10;99.90;;;;;;6227740;22;20098;-95
2022/01/12 03:32:49;;;;;;;4.47;1.17;;;5.10;99.90;;;;;;6225634;22;20095;-94
2022/01/12 03:35:46;;;;;;;5.40;1.40;;;5.00;99.90;;;;;;6227459;22;20096;-94
2022/01/12 03:38:20;;;;;;;10.50;2.00;;;5.00;99.90;;;;;;6251740;22;20012;-94
2022/01/12 03:40:51;;;;;;;4.85;1.33;;;5.00;99.90;;;;;;6227532;22;20015;-94
2022/01/12 03:43:22;;;;;;;5.43;1.35;;;5.00;99.90;;;;;;6227853;22;20020;-95
2022/01/12 03:45:56;;;;;;;4.43;1.02;;;5.00;99.90;;;;;;6227648;22;20458;-94
2022/01/12 03:48:28;;;;;;;4.50;1.30;;;5.00;99.90;;;;;;6227531;22;20412;-94
2022/01/12 03:50:56;;;;;;;8.35;1.30;;;4.90;99.90;;;;;;6225922;22;20020;-93
2022/01/12 03:53:29;;;;;;;6.57;1.25;;;4.90;99.90;;;;;;6227180;22;20012;-94
2022/01/12 03:55:58;;;;;;;1.45;0.70;;;4.90;99.90;;;;;;6251507;22;20451;-94
2022/01/12 03:58:26;;;;;;;4.78;1.05;;;4.90;99.90;;;;;;6225655;22;20428;-94
2022/01/12 04:00:55;;;;;;;5.57;1.20;;;4.90;99.90;;;;;;6227560;22;20015;-93
2022/01/12 04:03:28;;;;;;;4.90;0.85;;;4.90;99.90;;;;;;6227063;22;20043;-94
2022/01/12 04:08:25;;;;;;;4.82;1.15;;;4.80;99.90;;;;;;6251687;22;20016;-93
2022/01/12 04:11:00;;;;;;;8.65;1.33;;;4.80;99.90;;;;;;6227152;22;20026;-93
2022/01/12 04:13:33;;;;;;;3.42;1.08;;;4.80;99.90;;;;;;6227449;22;20024;-93
2022/01/12 04:16:05;;;;;;;2.38;0.70;;;4.80;99.90;;;;;;6251274;22;20350;-94
2022/01/12 04:18:34;;;;;;;5.43;1.40;;;4.80;99.90;;;;;;6226669;22;20019;-94
2022/01/12 04:21:05;;;;;;;2.88;1.00;;;4.80;99.90;;;;;;6227067;22;20381;-94
2022/01/12 04:23:35;;;;;;;1.53;0.70;;;4.70;99.90;;;;;;6226436;22;20016;-94
2022/01/12 04:26:10;;;;;;;2.83;0.93;;;4.80;99.90;;;;;;6226082;22;20245;-93
2022/01/12 04:28:43;;;;;;;5.28;1.10;;;4.70;99.90;;;;;;6225778;22;20019;-92
2022/01/12 04:31:13;;;;;;;2.35;0.77;;;4.70;99.90;;;;;;6226119;22;20024;-93
2022/01/12 04:33:50;;;;;;;3.38;0.98;;;4.70;99.90;;;;;;6226002;22;20019;-93
2022/01/12 04:36:25;;;;;;;6.53;1.17;;;4.70;99.90;;;;;;6226411;22;20019;-94
2022/01/12 04:39:00;;;;;;;2.25;0.95;;;4.70;99.90;;;;;;6227277;22;20020;-94
2022/01/12 04:41:28;;;;;;;4.45;1.55;;;4.60;99.90;;;;;;6250828;22;20023;-95
2022/01/12 04:43:57;;;;;;;2.60;0.88;;;4.60;99.90;;;;;;6226366;22;20070;-93
2022/01/12 04:46:36;;;;;;;3.35;1.40;;;4.60;99.90;;;;;;6225966;22;20046;-93
2022/01/12 04:49:26;;;;;;;7.72;2.33;;;4.60;99.90;;;;;;6225770;22;20081;-93
2022/01/12 04:51:53;;;;;;;5.07;1.10;;;4.60;99.90;;;;;;6226003;22;20024;-93
2022/01/12 04:54:24;;;;;;;4.57;1.10;;;4.60;99.90;;;;;;6250614;22;20016;-93
2022/01/12 04:56:51;;;;;;;4.80;1.20;;;4.60;99.90;;;;;;6225432;22;20512;-94
2022/01/12 04:59:18;;;;;;;3.58;1.80;;;4.60;99.90;;;;;;6225627;22;20339;-93
2022/01/12 05:01:56;;;;;;;2.60;1.08;;;4.50;99.90;;;;;;6225503;22;20019;-93
2022/01/12 05:07:27;;;;;;;3.60;1.35;;;4.50;99.90;;;;;;6249809;22;20459;-93
2022/01/12 05:12:51;;;;;;;3.08;0.80;;;4.50;99.90;;;;;;6250656;22;20016;-93
2022/01/12 05:15:33;;;;;;;2.55;1.05;;;4.50;99.90;;;;;;6226817;22;20098;-92
2022/01/12 05:18:00;;;;;;;3.78;1.05;;;4.40;99.90;;;;;;6213542;22;20019;-93
2022/01/12 05:20:28;;;;;;;1.75;0.70;;;4.40;99.90;;;;;;6225793;22;20020;-94
2022/01/12 05:22:58;;;;;;;4.72;1.13;;;4.40;99.90;;;;;;6227367;22;20077;-93
2022/01/12 05:25:25;;;;;;;2.65;1.30;;;4.40;99.90;;;;;;6227177;22;20024;-94
2022/01/12 05:27:54;;;;;;;4.07;1.35;;;4.40;99.90;;;;;;6227703;22;20029;-94
2022/01/12 05:30:22;;;;;;;2.78;1.27;;;4.40;99.90;;;;;;6228846;22;20019;-93
2022/01/12 05:32:50;;;;;;;2.25;0.77;;;4.40;99.90;;;;;;6230418;22;20015;-93
2022/01/12 05:35:21;;;;;;;6.72;1.20;;;4.40;99.90;;;;;;6227994;22;20042;-92
2022/01/12 05:37:55;;;;;;;2.00;0.93;;;4.40;99.90;;;;;;6228213;22;20016;-94
2022/01/12 05:40:26;;;;;;;3.25;1.40;;;4.40;99.90;;;;;;6228196;22;20016;-93
2022/01/12 05:42:59;;;;;;;2.08;1.10;;;4.30;99.90;;;;;;6228244;22;20321;-94
2022/01/12 05:45:32;;;;;;;3.30;0.90;;;4.30;99.90;;;;;;6227676;22;20050;-94
2022/01/12 05:50:40;;;;;;;4.82;1.13;;;4.30;99.90;;;;;;6252796;22;20023;-93
2022/01/12 05:53:17;;;;;;;4.88;1.58;;;4.30;99.90;;;;;;6228850;22;20020;-94
2022/01/12 05:55:51;;;;;;;7.25;1.40;;;4.30;99.90;;;;;;6228607;22;20473;-93
2022/01/12 05:58:21;;;;;;;3.03;1.65;;;4.30;99.90;;;;;;6227028;22;20031;-94
2022/01/12 06:00:51;;;;;;;2.65;1.02;;;4.30;99.90;;;;;;6251487;22;20047;-93
2022/01/12 06:03:19;;;;;;;2.65;1.33;;;4.30;99.90;;;;;;6252384;22;20020;-93
2022/01/12 06:05:46;;;;;;;3.50;1.63;;;4.20;99.90;;;;;;6226911;22;20024;-92
2022/01/12 06:08:13;;;;;;;4.05;1.40;;;4.20;99.90;;;;;;6252348;22;20036;-93
2022/01/12 06:10:40;;;;;;;3.35;1.75;;;4.20;99.90;;;;;;6228222;22;20024;-92
2022/01/12 06:13:09;;;;;;;2.08;1.10;;;4.20;99.90;;;;;;6226698;22;20102;-93
2022/01/12 06:15:39;;;;;;;8.25;1.92;;;4.20;99.90;;;;;;6227503;22;20446;-93
2022/01/12 06:18:06;;;;;;;5.63;1.50;;;4.20;99.90;;;;;;6226636;22;20020;-92
2022/01/12 06:20:33;;;;;;;3.17;1.40;;;4.20;99.90;;;;;;6252632;22;20015;-93
2022/01/12 06:23:13;;;;;;;4.32;1.65;;;4.20;99.90;;;;;;6264928;22;20028;-92
2022/01/12 06:25:45;;;;;;;3.40;1.20;;;4.20;99.90;;;;;;6227727;22;20023;-93
2022/01/12 06:31:17;;;;;;;7.05;1.60;;;4.20;99.90;;;;;;6186893;22;20019;-93
2022/01/12 06:33:48;;;;;;;8.57;2.00;;;4.20;99.90;;;;;;6227963;22;20069;-94
2022/01/12 06:36:18;;;;;;;3.33;1.85;;;4.10;99.90;;;;;;6226594;22;20020;-92
2022/01/12 06:38:46;;;;;;;9.55;1.95;;;4.10;99.90;;;;;;6227182;22;20431;-93
2022/01/12 06:41:14;;;;;;;6.35;2.20;;;4.10;99.90;;;;;;6251467;22;20026;-94
2022/01/12 06:43:43;;;;;;;6.00;2.25;;;4.10;99.90;;;;;;6227272;22;20023;-92
2022/01/12 06:46:14;;;;;;;4.32;2.17;;;4.10;99.90;;;;;;6227260;22;20019;-93
2022/01/12 06:48:42;;;;;;;4.80;2.03;;;4.10;99.90;;;;;;6226386;22;20026;-94
2022/01/12 06:51:09;;;;;;;7.47;1.75;;;4.10;99.90;;;;;;6251976;22;20355;-93
2022/01/12 06:53:36;;;;;;;4.47;1.83;;;4.10;99.90;;;;;;6226610;22;20016;-93
2022/01/12 06:56:08;;;;;;;8.65;2.58;;;4.00;99.90;;;;;;6227863;22;20016;-94
2022/01/12 06:59:17;;;;;;;6.15;2.15;;;4.00;99.90;;;;;;6252169;22;20012;-94
2022/01/12 07:02:20;;;;;;;5.00;2.40;;;4.10;99.90;;;;;;6253360;22;20027;-93
2022/01/12 07:04:52;;;;;;;7.28;2.15;;;4.00;99.90;;;;;;6278824;22;20016;-91
2022/01/12 07:07:23;;;;;;;6.75;2.17;;;4.00;99.90;;;;;;6252384;22;20508;-92
2022/01/12 07:09:54;;;;;;;5.93;2.55;;;4.00;99.90;;;;;;6228769;22;20062;-93
2022/01/12 07:12:25;;;;;;;6.15;2.33;;;4.00;99.90;;;;;;6227238;22;20342;-93
2022/01/12 07:15:00;;;;;;;6.25;2.38;;;4.00;99.90;;;;;;6229395;22;20050;-94
2022/01/12 07:18:21;;;;;;;7.47;2.35;;;4.00;99.90;;;;;;6227974;22;20022;-90
2022/01/12 07:43:28;;;;;;;7.65;2.20;;;3.90;99.90;;;;;;6221666;22;20036;-92
2022/01/12 07:46:17;;;;;;;6.68;1.95;;;3.80;99.90;;;;;;6286506;22;20435;-91
2022/01/12 07:48:49;;;;;;;6.78;2.20;;;3.80;99.90;;;;;;6268997;22;20018;-92
2022/01/12 07:55:50;;;;;;;5.18;2.05;;;3.80;99.90;;;;;;6126774;23;20093;-94
2022/01/12 07:58:19;;;;;;;5.60;1.80;;;3.90;99.90;;;;;;6124939;23;20030;-93
2022/01/12 08:00:53;;;;;;;6.65;2.20;;;3.80;99.90;;;;;;6078882;23;20018;-92
2022/01/12 08:03:22;;;;;;;7.38;2.13;;;3.80;99.90;;;;;;6101865;23;20331;-93
2022/01/12 08:05:52;;;;;;;8.95;2.70;;;3.80;99.90;;;;;;6125297;23;20026;-90
2022/01/12 08:08:19;;;;;;;10.23;2.20;;;3.80;99.90;;;;;;6100907;23;20065;-93
2022/01/12 08:10:47;;;;;;;4.68;2.28;;;3.80;99.90;;;;;;6100725;23;20347;-94
2022/01/12 08:13:14;;;;;;;8.50;2.80;;;3.80;99.90;;;;;;6077246;23;20076;-93
2022/01/12 08:15:41;;;;;;;6.78;2.70;;;3.80;99.90;;;;;;6100893;23;20022;-90
2022/01/12 08:18:17;;;;;;;4.10;2.13;;;3.80;99.90;;;;;;6076872;23;20026;-94
2022/01/12 08:21:01;;;;;;;5.30;1.80;;;3.80;99.90;;;;;;6125247;23;20104;-94
2022/01/12 08:23:30;;;;;;;4.47;1.88;;;3.80;99.90;;;;;;6124912;23;20108;-94
2022/01/12 08:26:00;;;;;;;6.97;2.10;;;3.80;99.90;;;;;;6116572;22;20019;-94
2022/01/12 08:28:27;;;;;;;3.55;1.90;;;3.80;99.90;;;;;;6225222;22;20019;-91
2022/01/12 08:30:54;;;;;;;4.57;1.45;;;3.80;99.90;;;;;;6250335;22;20102;-89
2022/01/12 08:33:25;;;;;;;11.98;2.50;;;3.80;99.90;;;;;;6225323;22;20026;-95
2022/01/12 08:35:54;;;;;;;6.85;2.17;;;3.70;99.90;;;;;;6225296;22;20026;-93
2022/01/12 08:38:22;;;;;;;5.88;2.20;;;3.70;99.90;;;;;;6225729;22;20022;-90
2022/01/12 08:40:50;;;;;;;8.65;2.03;;;3.70;99.90;;;;;;6225366;22;20110;-93
2022/01/12 08:43:20;;;;;;;3.30;1.60;;;3.70;99.90;;;;;;6255321;22;20024;-90
2022/01/12 08:45:52;;;;;;;5.03;1.83;;;3.70;99.90;;;;;;6225876;22;20058;-92
2022/01/12 08:48:26;;;;;;;6.13;1.52;;;3.70;99.90;;;;;;6225209;22;20477;-92
2022/01/12 08:51:01;;;;;;;2.80;1.30;;;3.70;99.90;;;;;;6251126;22;20011;-94
2022/01/12 08:57:37;;;;;;;5.10;1.95;;;3.70;99.90;;;;;;6218644;22;20019;-91
2022/01/12 09:03:06;;;;;;;4.53;1.67;;;3.70;99.90;;;;;;6286767;22;20078;-92
2022/01/12 09:05:52;;;;;;;3.38;1.90;;;3.80;99.90;;;;;;6281294;22;20027;-95
2022/01/12 09:08:34;;;;;;;3.30;1.53;;;3.70;99.90;;;;;;6252700;22;20065;-93
2022/01/12 09:11:42;;;;;;;4.72;1.90;;;3.80;99.90;;;;;;6249902;22;20019;-93
2022/01/12 09:18:25;;;;;;;3.53;1.83;;;3.80;99.90;;;;;;6249894;22;20070;-92
2022/01/12 09:21:00;;;;;;;3.63;1.95;;;3.80;99.90;;;;;;6250020;22;20016;-92
2022/01/12 09:24:09;;;;;;;9.02;2.83;;;3.80;99.90;;;;;;6238787;22;20027;-93
2022/01/12 09:26:42;;;;;;;4.63;1.85;;;3.80;99.90;;;;;;6234730;22;20012;-93
2022/01/12 09:29:31;;;;;;;6.50;2.33;;;3.80;99.90;;;;;;6223963;22;20019;-93
2022/01/12 09:32:13;;;;;;;4.53;2.10;;;3.80;99.90;;;;;;6227128;22;20474;-93
2022/01/12 09:35:16;;;;;;;4.70;2.00;;;3.80;99.90;;;;;;6250747;22;20078;-93
2022/01/12 09:38:25;;;;;;;2.90;1.50;;;3.80;99.90;;;;;;6189010;22;20372;-93
2022/01/12 09:41:28;;;;;;;4.07;2.30;;;3.80;99.90;;;;;;6261022;22;20022;-93
2022/01/12 09:48:13;;;;;;;16.52;2.17;;;3.80;99.90;;;;;;6272215;22;20023;-93
2022/01/12 09:55:34;;;;;;;21.02;3.13;;;4.40;99.90;;;;;;6281700;22;20015;-93
2022/01/12 09:59:09;;;;;;;12.83;2.13;;;4.90;99.90;;;;;;6291321;22;20042;-93
2022/01/12 10:01:44;;;;;;;14.37;2.83;;;5.10;99.90;;;;;;6281306;22;20016;-91
2022/01/12 10:05:07;;;;;;;9.30;1.95;;;5.20;99.90;;;;;;6213456;23;20087;-93
2022/01/12 10:08:49;;;;;;;23.73;1.88;;;5.20;99.90;;;;;;6189877;23;20024;-94
2022/01/12 10:15:54;;;;;;;15.02;1.65;;;5.70;99.90;;;;;;6178502;23;19959;-92
2022/01/12 10:19:00;;;;;;;15.35;3.05;;;5.90;99.90;;;;;;6195133;23;20067;-92
2022/01/12 10:22:24;;;;;;;12.65;1.80;;;6.00;99.90;;;;;;6169304;23;20419;-92
2022/01/12 10:31:07;;;;;;;21.45;2.95;;;6.00;99.90;;;;;;6039456;23;20106;-94
2022/01/12 10:35:11;;;;;;;15.00;2.33;;;6.00;99.90;;;;;;6041158;23;20442;-94
2022/01/12 10:38:57;;;;;;;12.38;1.65;;;6.10;99.90;;;;;;6010686;23;20042;-94
2022/01/12 10:42:08;;;;;;;10.38;1.75;;;6.00;99.90;;;;;;6013382;23;20033;-94
2022/01/12 10:44:52;;;;;;;9.80;2.17;;;6.10;99.90;;;;;;6096224;23;20019;-92
2022/01/12 10:47:31;;;;;;;;;;;6.20;99.90;;;;;;6128594;23;20028;-93
2022/01/12 10:50:11;;;;;;;15.60;1.98;;;6.20;99.90;;;;;;6160490;23;19950;-94
2022/01/12 10:57:18;;;;;;;;;;;6.20;99.90;;;;;;6253364;22;20091;-92
2022/01/12 11:00:32;;;;;;;;;;;;;;;;;;;;;
2022/01/12 11:03:29;;;;;;;13.05;2.42;;;6.20;99.90;;;;;;6242168;22;20016;-93
2022/01/12 11:11:04;;;;;;;12.38;1.60;;;6.30;99.90;;;;;;6233250;22;20040;-92
2022/01/12 11:14:11;;;;;;;10.80;1.70;;;6.30;99.90;;;;;;6253750;22;20020;-94
2022/01/12 11:17:43;;;;;;;13.77;1.58;;;6.40;99.90;;;;;;6229874;22;20479;-93
2022/01/12 11:39:30;;;;;;;;;;;;;;;;;;;;;
2022/01/12 11:51:38;;;;;;;14.68;1.98;;;6.80;99.90;;;;;;6096328;23;20021;-93
2022/01/12 11:54:19;;;;;;;15.65;2.60;;;6.60;99.90;;;;;;6139177;23;20024;-92
2022/01/12 11:57:42;;;;;;;12.95;2.10;;;6.70;99.90;;;;;;6247340;22;20059;-92
2022/01/12 12:00:23;;;;;;;12.15;1.75;;;6.80;99.90;;;;;;6222278;23;20020;-92
2022/01/12 12:02:53;;;;;;;11.52;2.17;;;7.00;99.90;;;;;;6245089;23;20070;-93
2022/01/12 12:06:14;;;;;;;15.73;1.92;;;6.90;99.90;;;;;;6222106;23;20444;-92
2022/01/12 12:08:59;;;;;;;15.77;2.75;;;6.80;99.90;;;;;;6242744;23;20066;-92
2022/01/12 12:11:40;;;;;;;14.00;1.95;;;6.70;99.90;;;;;;6221512;23;20478;-94
2022/01/12 12:14:58;;;;;;;19.60;3.15;;;6.60;99.90;;;;;;6219850;23;20095;-93
2022/01/12 12:18:10;;;;;;;;;;;;;;;;;;;;;
2022/01/12 12:32:55;;;;;;;6.88;1.70;;;7.10;99.90;;;;;;6211874;22;20070;-93
2022/01/12 12:35:28;;;;;;;10.50;1.38;;;7.00;99.90;;;;;;6250619;22;20016;-92
2022/01/12 12:42:19;;;;;;;12.60;1.58;;;7.00;99.90;;;;;;6101476;23;20025;-91
2022/01/12 13:27:18;;;;;;;12.00;2.08;;;7.10;99.90;;;;;;6278673;22;20027;-92
2022/01/12 13:29:47;;;;;;;10.82;2.10;;;7.20;99.90;;;;;;6231219;22;20019;-94
2022/01/12 13:32:18;;;;;;;11.07;2.58;;;7.10;99.90;;;;;;6225610;22;20466;-91
2022/01/12 13:35:10;;;;;;;19.42;2.28;;;7.20;99.90;;;;;;6225195;22;20019;-92
2022/01/12 13:37:44;;;;;;;9.27;1.80;;;7.20;99.90;;;;;;6225424;22;20020;-92
2022/01/12 13:40:37;;;;;;;9.20;1.65;;;7.30;99.90;;;;;;6277408;22;20012;-93
2022/01/12 13:43:10;;;;;;;10.80;2.05;;;7.30;99.90;;;;;;6277718;22;20022;-92
2022/01/12 13:45:43;;;;;;;11.43;1.42;;;7.20;99.90;;;;;;6279739;22;20335;-92
2022/01/12 13:48:18;;;;;;;12.23;2.42;;;7.20;99.90;;;;;;6252674;22;20027;-91
2022/01/12 13:50:59;;;;;;;11.98;1.88;;;7.30;99.90;;;;;;6227858;22;20023;-93
2022/01/12 13:53:38;;;;;;;5.90;1.65;;;7.30;99.90;;;;;;6227165;22;20015;-92
2022/01/12 13:56:41;;;;;;;15.88;2.47;;;7.30;99.90;;;;;;6253017;22;20035;-93
2022/01/12 18:04:02;;;;;;;30.50;11.38;;;6.50;99.90;;;;;;6277168;22;20066;-94
2022/01/12 18:07:06;;;;;;;19.23;8.98;;;6.40;99.90;;;;;;6251067;22;20022;-94
2022/01/12 18:10:30;;;;;;;20.70;6.53;;;6.50;99.90;;;;;;6228412;22;20016;-92
2022/01/12 18:50:08;;;;;;;13.35;4.20;;;6.30;99.90;;;;;;6257366;22;20098;-92
